Time;durP1;ratioP1;P1;durP2;ratioP2;P2;SDS_P1;SDS_P2;PMS_P1;PMS_P2;Temp;Humidity;BMP_temperature;BMP_pressure;BME280_temperature;BME280_humidity;BME280_pressure;Samples;Min_cycle;Max_cycle;Signal;HPM_P1;HPM_P2
2023/01/19 05:31:50;;;;;;;;;16.67;13.00;;;;;;;;6271129;22;1483616;-57
2023/01/19 05:34:15;;;;;;;;;14.67;13.33;;;;;;;;6402990;22;45305;-57
2023/01/19 05:36:41;;;;;;;;;16.00;12.33;;;;;;;;6402719;22;45337;-58
2023/01/19 05:39:06;;;;;;;;;21.33;14.33;;;;;;;;6403814;22;45893;-58
2023/01/19 05:41:31;;;;;;;;;15.33;12.67;;;;;;;;6405098;22;45147;-58
2023/01/19 05:43:56;;;;;;;;;18.00;15.00;;;;;;;;6404281;22;45205;-55
2023/01/19 05:46:22;;;;;;;;;14.67;14.67;;;;;;;;6403735;22;45291;-56
2023/01/19 05:48:47;;;;;;;;;19.33;14.00;;;;;;;;6403847;22;45457;-56
2023/01/19 05:51:12;;;;;;;;;26.00;15.67;;;;;;;;6403441;22;45244;-56
2023/01/19 05:53:37;;;;;;;;;25.33;18.00;;;;;;;;6395215;22;45435;-57
2023/01/19 05:56:04;;;;;;;;;22.00;17.00;;;;;;;;6400652;22;45361;-58
2023/01/19 05:58:30;;;;;;;;;15.00;12.67;;;;;;;;6374119;22;45564;-57
2023/01/19 06:00:55;;;;;;;;;14.33;14.00;;;;;;;;6403495;22;45323;-57
2023/01/19 06:03:20;;;;;;;;;17.67;14.33;;;;;;;;6402798;22;45990;-56
2023/01/19 06:05:46;;;;;;;;;17.00;15.00;;;;;;;;6402976;22;45164;-57
2023/01/19 06:08:11;;;;;;;;;19.33;13.33;;;;;;;;6373943;22;45215;-58
2023/01/19 06:10:36;;;;;;;;;13.00;12.00;;;;;;;;6403788;22;45237;-57
2023/01/19 06:13:01;;;;;;;;;16.67;14.67;;;;;;;;6373749;22;46958;-57
2023/01/19 06:15:27;;;;;;;;;18.33;13.33;;;;;;;;6373970;22;45281;-57
2023/01/19 06:17:52;;;;;;;;;12.33;12.00;;;;;;;;6403149;22;45450;-58
2023/01/19 06:20:17;;;;;;;;;15.00;12.67;;;;;;;;6402946;22;45459;-58
2023/01/19 06:22:43;;;;;;;;;17.67;13.00;;;;;;;;6403244;22;45374;-58
2023/01/19 06:25:08;;;;;;;;;14.67;12.67;;;;;;;;6402286;22;45572;-58
2023/01/19 06:27:35;;;;;;;;;19.00;16.00;;;;;;;;6403143;22;45301;-57
2023/01/19 06:30:00;;;;;;;;;17.67;16.67;;;;;;;;6403201;22;45277;-57
2023/01/19 06:32:25;;;;;;;;;19.33;16.00;;;;;;;;6398815;22;45279;-58
2023/01/19 06:34:50;;;;;;;;;16.33;12.00;;;;;;;;6400994;22;45260;-57
2023/01/19 06:37:16;;;;;;;;;18.67;15.33;;;;;;;;6402936;22;45257;-57
2023/01/19 06:39:42;;;;;;;;;20.00;12.00;;;;;;;;6401344;22;45237;-57
2023/01/19 06:42:07;;;;;;;;;16.33;12.00;;;;;;;;6400118;22;46948;-57
2023/01/19 06:44:32;;;;;;;;;11.00;10.67;;;;;;;;6400337;22;45282;-56
2023/01/19 06:46:58;;;;;;;;;22.00;15.33;;;;;;;;6368089;22;45263;-57
2023/01/19 06:49:23;;;;;;;;;20.67;13.33;;;;;;;;6400132;22;45356;-57
2023/01/19 06:51:49;;;;;;;;;12.33;11.00;;;;;;;;6399392;22;46108;-57
2023/01/19 06:54:15;;;;;;;;;11.33;11.33;;;;;;;;6398367;22;45363;-57
2023/01/19 06:56:40;;;;;;;;;17.33;13.33;;;;;;;;6370654;22;45615;-57
2023/01/19 06:59:05;;;;;;;;;12.00;12.00;;;;;;;;6399783;22;45273;-56
2023/01/19 07:01:31;;;;;;;;;16.67;12.33;;;;;;;;6398255;22;45332;-57
2023/01/19 07:03:56;;;;;;;;;12.67;11.33;;;;;;;;6398569;22;45551;-57
2023/01/19 07:06:22;;;;;;;;;13.33;13.33;;;;;;;;6399342;22;45400;-57
2023/01/19 07:08:47;;;;;;;;;14.33;12.00;;;;;;;;6402346;22;45235;-57
2023/01/19 07:11:12;;;;;;;;;13.33;10.33;;;;;;;;6373584;22;45387;-57
2023/01/19 07:13:38;;;;;;;;;11.67;10.33;;;;;;;;6402198;22;45361;-57
2023/01/19 07:16:04;;;;;;;;;12.67;11.67;;;;;;;;6402816;22;45234;-57
2023/01/19 07:18:30;;;;;;;;;19.00;13.67;;;;;;;;6402355;22;45415;-58
2023/01/19 07:20:56;;;;;;;;;19.33;13.67;;;;;;;;6401619;22;47159;-57
2023/01/19 07:23:21;;;;;;;;;14.00;10.00;;;;;;;;6401050;22;45318;-56
2023/01/19 07:25:46;;;;;;;;;17.33;12.67;;;;;;;;6400780;22;45419;-57
2023/01/19 07:28:14;;;;;;;;;11.00;11.00;;;;;;;;6402570;22;45360;-57
2023/01/19 07:30:40;;;;;;;;;16.33;12.00;;;;;;;;6401688;22;46189;-55
2023/01/19 07:33:05;;;;;;;;;15.00;10.00;;;;;;;;6400850;22;45237;-58
2023/01/19 07:35:31;;;;;;;;;12.67;11.67;;;;;;;;6402270;22;45281;-58
2023/01/19 07:37:57;;;;;;;;;9.33;8.00;;;;;;;;6401447;22;45164;-58
2023/01/19 07:40:22;;;;;;;;;10.00;7.00;;;;;;;;6372263;22;46286;-59
2023/01/19 07:42:49;;;;;;;;;16.00;13.00;;;;;;;;6401630;22;45318;-59
2023/01/19 07:45:19;;;;;;;;;13.00;11.00;;;;;;;;6401678;22;45438;-59
2023/01/19 07:47:45;;;;;;;;;16.33;12.67;;;;;;;;6400284;22;45250;-59
2023/01/19 07:50:11;;;;;;;;;11.33;11.00;;;;;;;;6401009;22;45284;-59
2023/01/19 07:52:36;;;;;;;;;26.33;19.00;;;;;;;;6402209;22;45282;-59
2023/01/19 07:55:01;;;;;;;;;13.67;12.33;;;;;;;;6402250;22;45579;-59
2023/01/19 07:57:27;;;;;;;;;11.33;7.67;;;;;;;;6401277;22;45306;-59
2023/01/19 07:59:52;;;;;;;;;15.33;10.33;;;;;;;;6401100;22;46761;-57
2023/01/19 08:02:17;;;;;;;;;13.33;9.33;;;;;;;;6401123;22;45332;-57
2023/01/19 08:04:43;;;;;;;;;15.33;13.33;;;;;;;;6401788;22;45280;-57
2023/01/19 08:07:08;;;;;;;;;13.33;12.00;;;;;;;;6402355;22;45356;-58
2023/01/19 08:09:33;;;;;;;;;34.25;24.75;;;;;;;;6402268;22;46343;-58
2023/01/19 08:11:59;;;;;;;;;23.00;17.75;;;;;;;;6402546;22;45642;-58
2023/01/19 08:14:24;;;;;;;;;24.75;21.50;;;;;;;;6405116;22;45190;-58
2023/01/19 08:16:49;;;;;;;;;16.67;16.00;;;;;;;;6404701;22;45168;-58
2023/01/19 08:19:14;;;;;;;;;18.75;16.75;;;;;;;;6403756;22;45354;-54
2023/01/19 08:21:39;;;;;;;;;10.67;10.67;;;;;;;;6402176;22;45342;-58
2023/01/19 08:24:05;;;;;;;;;11.67;9.33;;;;;;;;6397099;22;45736;-58
2023/01/19 08:26:32;;;;;;;;;12.00;9.33;;;;;;;;6399397;22;45596;-57
2023/01/19 08:28:58;;;;;;;;;12.67;12.67;;;;;;;;6398993;22;46047;-56
2023/01/19 08:31:24;;;;;;;;;8.33;7.00;;;;;;;;6397369;22;45553;-57
2023/01/19 08:33:49;;;;;;;;;7.67;2.67;;;;;;;;6398059;22;45438;-56
2023/01/19 08:36:14;;;;;;;;;7.67;7.67;;;;;;;;6399176;22;45346;-57
2023/01/19 08:38:42;;;;;;;;;11.67;11.00;;;;;;;;6401096;22;45971;-58
2023/01/19 08:41:08;;;;;;;;;9.67;7.67;;;;;;;;6400302;22;45443;-57
2023/01/19 08:43:33;;;;;;;;;11.33;7.67;;;;;;;;6402912;22;45313;-55
2023/01/19 08:45:59;;;;;;;;;9.00;9.00;;;;;;;;6402458;22;45358;-55
2023/01/19 08:48:24;;;;;;;;;9.33;8.00;;;;;;;;6402019;22;46863;-56
2023/01/19 08:50:50;;;;;;;;;11.00;8.67;;;;;;;;6402603;22;45243;-56
2023/01/19 08:53:15;;;;;;;;;14.00;8.33;;;;;;;;6373575;22;45337;-57
2023/01/19 08:55:41;;;;;;;;;8.33;8.00;;;;;;;;6374255;22;45209;-56
2023/01/19 08:58:07;;;;;;;;;9.00;9.00;;;;;;;;6402198;22;46065;-56
2023/01/19 09:00:33;;;;;;;;;9.00;9.00;;;;;;;;6402668;22;45356;-54
2023/01/19 09:03:01;;;;;;;;;14.00;9.00;;;;;;;;6401881;22;45297;-58
2023/01/19 09:05:27;;;;;;;;;15.00;11.67;;;;;;;;6401749;22;45378;-61
2023/01/19 09:07:52;;;;;;;;;17.67;15.33;;;;;;;;6373696;22;47007;-57
2023/01/19 09:10:17;;;;;;;;;11.00;10.00;;;;;;;;6402791;22;45281;-58
2023/01/19 09:12:43;;;;;;;;;14.67;12.00;;;;;;;;6403062;22;45324;-56
2023/01/19 09:15:09;;;;;;;;;14.33;10.33;;;;;;;;6402968;22;45343;-54
2023/01/19 09:17:35;;;;;;;;;10.33;9.00;;;;;;;;6402336;22;45976;-56
2023/01/19 09:20:00;;;;;;;;;10.33;8.00;;;;;;;;6402394;22;45739;-55
2023/01/19 09:22:25;;;;;;;;;12.00;11.33;;;;;;;;6403498;22;45221;-57
2023/01/19 09:24:50;;;;;;;;;14.33;10.67;;;;;;;;6402988;22;45293;-54
2023/01/19 09:27:16;;;;;;;;;10.00;9.33;;;;;;;;6403245;22;45283;-56
2023/01/19 09:29:41;;;;;;;;;12.00;9.33;;;;;;;;6402582;22;45347;-55
2023/01/19 09:32:06;;;;;;;;;12.00;12.00;;;;;;;;6402521;22;45397;-56
2023/01/19 09:34:31;;;;;;;;;16.33;15.33;;;;;;;;6403358;22;45285;-54
2023/01/19 09:36:56;;;;;;;;;19.00;14.67;;;;;;;;6403175;22;46055;-56
2023/01/19 09:39:22;;;;;;;;;18.00;13.67;;;;;;;;6403216;22;45224;-56
2023/01/19 09:41:51;;;;;;;;;20.00;13.33;;;;;;;;6403871;22;45288;-57
2023/01/19 09:44:19;;;;;;;;;18.67;14.33;;;;;;;;6402644;22;45832;-55
2023/01/19 09:46:44;;;;;;;;;19.33;13.00;;;;;;;;6403597;22;45957;-58
2023/01/19 09:49:18;;;;;;;;;18.00;16.00;;;;;;;;6401609;22;45299;-57
2023/01/19 09:51:45;;;;;;;;;20.00;19.75;;;;;;;;6402546;22;45393;-57
2023/01/19 09:54:13;;;;;;;;;14.67;13.00;;;;;;;;6400733;22;45316;-57
2023/01/19 09:56:38;;;;;;;;;14.33;12.33;;;;;;;;6400619;22;45283;-56
2023/01/19 09:59:21;;;;;;;;;14.00;10.67;;;;;;;;6402400;22;45175;-57
2023/01/19 10:01:49;;;;;;;;;13.33;12.00;;;;;;;;6402565;22;45307;-56
2023/01/19 10:04:36;;;;;;;;;9.00;7.33;;;;;;;;6401380;22;45532;-57
2023/01/19 10:07:07;;;;;;;;;24.00;17.33;;;;;;;;6399704;22;45289;-58
2023/01/19 10:09:38;;;;;;;;;18.67;15.33;;;;;;;;6401269;22;45345;-58
2023/01/19 10:12:09;;;;;;;;;15.00;14.00;;;;;;;;6402089;22;45348;-58
2023/01/19 10:14:44;;;;;;;;;8.00;8.00;;;;;;;;6402696;22;45372;-58
2023/01/19 10:17:48;;;;;;;;;18.33;15.00;;;;;;;;6400691;22;46321;-57
2023/01/19 10:20:21;;;;;;;;;14.00;14.00;;;;;;;;6270622;22;45319;-57
2023/01/19 10:22:48;;;;;;;;;15.67;15.67;;;;;;;;6272672;22;45295;-58
2023/01/19 10:25:17;;;;;;;;;18.33;16.67;;;;;;;;6338428;22;45323;-58
2023/01/19 10:27:42;;;;;;;;;20.00;15.33;;;;;;;;6401720;22;46069;-57
2023/01/19 10:30:13;;;;;;;;;23.00;18.67;;;;;;;;6401556;22;45754;-55
2023/01/19 10:32:39;;;;;;;;;17.67;13.67;;;;;;;;6402135;22;45248;-56
2023/01/19 10:35:20;;;;;;;;;16.33;14.00;;;;;;;;6400903;22;45354;-57
2023/01/19 10:37:45;;;;;;;;;19.00;15.33;;;;;;;;6401712;22;45524;-57
2023/01/19 10:40:11;;;;;;;;;26.00;18.00;;;;;;;;6401363;22;45434;-58
2023/01/19 10:42:37;;;;;;;;;25.00;17.67;;;;;;;;6373118;22;45348;-57
2023/01/19 10:45:03;;;;;;;;;22.33;22.00;;;;;;;;6402244;22;45296;-58
2023/01/19 10:47:35;;;;;;;;;22.00;18.00;;;;;;;;6373039;22;45821;-56
2023/01/19 10:50:19;;;;;;;;;28.33;19.00;;;;;;;;6395978;22;45373;-58
2023/01/19 10:52:48;;;;;;;;;24.67;20.67;;;;;;;;6402113;22;45371;-57
2023/01/19 10:55:23;;;;;;;;;18.00;17.67;;;;;;;;6401982;22;45280;-56
2023/01/19 10:57:50;;;;;;;;;21.33;19.67;;;;;;;;6401909;22;46045;-57
2023/01/19 11:00:34;;;;;;;;;23.00;18.33;;;;;;;;6401529;22;45339;-57
2023/01/19 11:03:00;;;;;;;;;32.33;26.00;;;;;;;;6400406;22;45795;-57
2023/01/19 11:05:29;;;;;;;;;28.00;21.00;;;;;;;;6401709;22;45334;-56
2023/01/19 11:07:55;;;;;;;;;23.67;20.00;;;;;;;;6400725;22;45323;-58
2023/01/19 11:10:20;;;;;;;;;21.33;20.67;;;;;;;;6401415;22;45340;-57
2023/01/19 11:13:02;;;;;;;;;25.00;21.67;;;;;;;;6401002;22;45232;-57
2023/01/19 11:15:30;;;;;;;;;30.33;22.67;;;;;;;;6398032;22;45264;-58
2023/01/19 11:17:55;;;;;;;;;27.00;23.00;;;;;;;;6398382;22;46128;-58
2023/01/19 11:20:22;;;;;;;;;29.33;24.00;;;;;;;;6398068;22;45340;-57
2023/01/19 11:23:02;;;;;;;;;24.00;22.00;;;;;;;;6402338;22;45326;-56
2023/01/19 11:25:30;;;;;;;;;31.67;25.33;;;;;;;;6395633;22;45335;-56
2023/01/19 11:27:55;;;;;;;;;25.33;22.67;;;;;;;;6369986;22;47482;-57
2023/01/19 11:30:23;;;;;;;;;24.67;22.33;;;;;;;;6401784;22;45281;-56
2023/01/19 11:32:48;;;;;;;;;33.67;25.33;;;;;;;;6402472;22;45210;-56
2023/01/19 11:35:32;;;;;;;;;27.67;20.67;;;;;;;;6399855;22;45479;-57
2023/01/19 11:38:19;;;;;;;;;25.67;21.00;;;;;;;;6403298;22;46779;-57
2023/01/19 11:40:55;;;;;;;;;23.33;19.00;;;;;;;;6372892;22;45286;-59
2023/01/19 11:43:21;;;;;;;;;32.00;23.67;;;;;;;;6401603;22;45312;-57
2023/01/19 11:45:47;;;;;;;;;28.00;24.33;;;;;;;;6402018;22;45649;-56
2023/01/19 11:48:26;;;;;;;;;29.67;24.00;;;;;;;;6401051;22;45487;-59
2023/01/19 11:50:51;;;;;;;;;18.67;15.00;;;;;;;;6401191;22;45300;-60
2023/01/19 11:53:21;;;;;;;;;23.67;18.67;;;;;;;;6402374;22;45249;-57
2023/01/19 11:55:52;;;;;;;;;23.33;19.00;;;;;;;;6402437;22;45429;-56
2023/01/19 11:58:18;;;;;;;;;24.33;22.33;;;;;;;;6401851;22;45355;-56
2023/01/19 12:00:47;;;;;;;;;21.00;20.33;;;;;;;;6399330;22;45325;-57
2023/01/19 12:03:18;;;;;;;;;23.33;23.33;;;;;;;;6397885;22;45335;-58
2023/01/19 12:05:49;;;;;;;;;34.75;31.50;;;;;;;;6396555;22;45444;-58
2023/01/19 12:08:17;;;;;;;;;22.33;19.67;;;;;;;;6396956;22;46048;-58
2023/01/19 12:10:44;;;;;;;;;25.67;23.67;;;;;;;;6397459;22;45300;-58
2023/01/19 12:13:20;;;;;;;;;25.00;20.33;;;;;;;;6397672;22;45538;-58
2023/01/19 12:15:46;;;;;;;;;23.50;21.50;;;;;;;;6397487;22;45366;-59
2023/01/19 12:18:20;;;;;;;;;24.33;18.67;;;;;;;;6367706;22;47005;-58
2023/01/19 12:20:50;;;;;;;;;19.33;17.00;;;;;;;;6397399;22;45296;-58
2023/01/19 12:23:15;;;;;;;;;20.00;16.00;;;;;;;;6397444;22;45403;-62
2023/01/19 12:26:00;;;;;;;;;17.00;17.00;;;;;;;;6395131;22;45335;-62
2023/01/19 12:28:29;;;;;;;;;17.33;15.67;;;;;;;;6377257;22;46642;-69
2023/01/19 12:30:54;;;;;;;;;16.33;14.00;;;;;;;;6398035;22;45295;-65
2023/01/19 12:33:22;;;;;;;;;19.00;15.00;;;;;;;;6401898;22;45680;-62
2023/01/19 12:35:59;;;;;;;;;14.33;14.33;;;;;;;;6400801;22;45465;-61
2023/01/19 12:38:43;;;;;;;;;18.00;17.67;;;;;;;;6399828;22;45348;-62
2023/01/19 12:41:17;;;;;;;;;17.33;16.00;;;;;;;;6400497;22;45347;-62
2023/01/19 12:43:42;;;;;;;;;16.00;16.00;;;;;;;;6401271;22;45352;-54
2023/01/19 12:46:27;;;;;;;;;22.67;18.00;;;;;;;;6399286;22;45322;-57
2023/01/19 12:48:53;;;;;;;;;17.00;17.00;;;;;;;;6398884;22;45523;-57
2023/01/19 12:51:22;;;;;;;;;16.67;16.00;;;;;;;;6400912;22;45449;-56
2023/01/19 12:53:53;;;;;;;;;19.67;18.00;;;;;;;;6401567;22;45440;-56
2023/01/19 12:56:25;;;;;;;;;18.00;16.00;;;;;;;;6400305;22;45383;-58
2023/01/19 12:58:50;;;;;;;;;20.33;18.00;;;;;;;;6400623;22;46205;-58
2023/01/19 13:01:19;;;;;;;;;16.67;15.00;;;;;;;;6402558;22;45264;-57
2023/01/19 13:03:57;;;;;;;;;18.00;17.00;;;;;;;;6402105;22;45504;-58
2023/01/19 13:06:42;;;;;;;;;18.00;17.33;;;;;;;;6401193;22;45464;-55
2023/01/19 13:09:26;;;;;;;;;20.33;18.00;;;;;;;;6400774;22;47226;-56
2023/01/19 13:12:14;;;;;;;;;17.67;14.33;;;;;;;;6401295;22;45288;-54
2023/01/19 13:14:41;;;;;;;;;14.33;14.33;;;;;;;;6384068;22;45272;-57
2023/01/19 13:17:25;;;;;;;;;15.33;14.33;;;;;;;;6401149;22;45328;-56
2023/01/19 13:19:52;;;;;;;;;21.00;15.00;;;;;;;;6403089;22;46005;-49
2023/01/19 13:22:36;;;;;;;;;15.67;15.67;;;;;;;;6402773;22;45372;-56
2023/01/19 13:25:06;;;;;;;;;16.33;13.00;;;;;;;;6402671;22;45361;-56
2023/01/19 13:27:33;;;;;;;;;24.00;19.00;;;;;;;;6403109;22;45301;-57
2023/01/19 13:29:59;;;;;;;;;22.00;20.33;;;;;;;;6402249;22;46158;-57
2023/01/19 13:32:25;;;;;;;;;21.33;17.33;;;;;;;;6402390;22;45675;-59
2023/01/19 13:34:56;;;;;;;;;21.67;18.00;;;;;;;;6402060;22;45210;-59
2023/01/19 13:37:24;;;;;;;;;29.00;24.33;;;;;;;;6402728;22;45453;-59
2023/01/19 13:39:51;;;;;;;;;18.00;15.33;;;;;;;;6402488;22;46154;-59
2023/01/19 13:42:32;;;;;;;;;23.00;22.00;;;;;;;;6403251;22;45199;-60
2023/01/19 13:44:58;;;;;;;;;20.00;20.00;;;;;;;;6402554;22;45230;-60
2023/01/19 13:47:26;;;;;;;;;21.00;17.67;;;;;;;;6402970;22;45267;-60
2023/01/19 13:49:55;;;;;;;;;21.67;20.00;;;;;;;;6401743;22;45317;-59
2023/01/19 13:52:24;;;;;;;;;23.67;19.00;;;;;;;;6402692;22;45415;-60
2023/01/19 13:54:53;;;;;;;;;15.33;10.00;;;;;;;;6402657;22;45285;-59
2023/01/19 13:57:22;;;;;;;;;24.00;17.67;;;;;;;;6402890;22;45354;-59
2023/01/19 14:00:07;;;;;;;;;26.67;20.67;;;;;;;;6374086;22;47089;-59
2023/01/19 14:02:32;;;;;;;;;20.33;18.00;;;;;;;;6403502;22;45291;-60
2023/01/19 14:04:57;;;;;;;;;17.00;15.67;;;;;;;;6402255;22;45277;-59
2023/01/19 14:07:25;;;;;;;;;19.67;15.33;;;;;;;;6403395;22;45228;-60
2023/01/19 14:10:03;;;;;;;;;16.00;15.33;;;;;;;;6402365;22;46242;-60
2023/01/19 14:12:28;;;;;;;;;22.00;16.00;;;;;;;;6402693;22;45688;-59
2023/01/19 14:14:54;;;;;;;;;24.00;21.00;;;;;;;;6402526;22;45312;-59
2023/01/19 14:17:22;;;;;;;;;18.33;16.00;;;;;;;;6403112;22;45334;-59
2023/01/19 14:19:48;;;;;;;;;21.67;17.67;;;;;;;;6402779;22;46114;-59
2023/01/19 14:22:13;;;;;;;;;19.33;14.67;;;;;;;;6400464;22;45307;-59
2023/01/19 14:24:38;;;;;;;;;19.33;17.67;;;;;;;;6403160;22;45516;-60
2023/01/19 14:27:10;;;;;;;;;17.67;14.67;;;;;;;;6403132;22;45316;-60
2023/01/19 14:29:39;;;;;;;;;16.00;14.33;;;;;;;;6402406;22;46470;-59
2023/01/19 14:32:04;;;;;;;;;19.33;16.67;;;;;;;;6402367;22;45255;-59
2023/01/19 14:34:32;;;;;;;;;15.33;14.00;;;;;;;;6402661;22;45177;-59
2023/01/19 14:36:58;;;;;;;;;13.67;11.67;;;;;;;;6402473;22;45339;-60
2023/01/19 14:39:25;;;;;;;;;16.33;14.67;;;;;;;;6402249;22;45331;-60
2023/01/19 14:41:51;;;;;;;;;21.50;16.00;;;;;;;;6403022;22;45263;-60
2023/01/19 14:44:22;;;;;;;;;20.33;18.67;;;;;;;;6403482;22;45312;-59
2023/01/19 14:46:48;;;;;;;;;15.67;14.00;;;;;;;;6399453;22;45651;-60
2023/01/19 14:49:30;;;;;;;;;13.67;13.67;;;;;;;;6402621;22;46139;-60
2023/01/19 14:51:55;;;;;;;;;10.50;10.50;;;;;;;;6402388;22;45326;-60
2023/01/19 14:54:27;;;;;;;;;18.75;13.00;;;;;;;;6398138;22;45319;-60
2023/01/19 14:56:52;;;;;;;;;21.33;18.00;;;;;;;;6396781;22;45403;-60
2023/01/19 14:59:17;;;;;;;;;21.25;19.75;;;;;;;;6399136;22;45512;-60
2023/01/19 15:01:43;;;;;;;;;22.00;17.25;;;;;;;;6400541;22;45480;-60
2023/01/19 15:04:08;;;;;;;;;19.67;14.33;;;;;;;;6400130;22;45446;-60
2023/01/19 15:06:37;;;;;;;;;13.33;13.33;;;;;;;;6400905;22;45583;-60
2023/01/19 15:09:03;;;;;;;;;14.50;13.25;;;;;;;;6401374;22;46289;-59
2023/01/19 15:11:32;;;;;;;;;19.67;17.00;;;;;;;;6401947;22;45325;-60
2023/01/19 15:13:58;;;;;;;;;19.00;15.67;;;;;;;;6402334;22;45281;-59
2023/01/19 15:16:24;;;;;;;;;16.75;16.25;;;;;;;;6402357;22;45201;-60
2023/01/19 15:18:49;;;;;;;;;18.00;14.25;;;;;;;;6401975;22;46045;-60
2023/01/19 15:21:18;;;;;;;;;24.25;19.00;;;;;;;;6401588;22;45202;-58
2023/01/19 15:23:44;;;;;;;;;23.00;20.00;;;;;;;;6402251;22;45329;-56
2023/01/19 15:26:12;;;;;;;;;12.50;11.50;;;;;;;;6401685;22;45331;-58
2023/01/19 15:28:37;;;;;;;;;23.25;16.00;;;;;;;;6401402;22;45383;-56
2023/01/19 15:31:02;;;;;;;;;18.50;15.75;;;;;;;;6401541;22;45347;-57
2023/01/19 15:33:31;;;;;;;;;21.00;17.75;;;;;;;;6402137;22;45318;-57
2023/01/19 15:35:56;;;;;;;;;20.00;16.67;;;;;;;;6400852;22;45456;-57
2023/01/19 15:38:22;;;;;;;;;14.75;14.25;;;;;;;;6399588;22;45347;-57
2023/01/19 15:40:47;;;;;;;;;14.25;13.25;;;;;;;;6401003;22;45635;-58
2023/01/19 15:43:13;;;;;;;;;17.67;15.00;;;;;;;;6401097;22;45342;-57
2023/01/19 15:45:38;;;;;;;;;18.00;18.00;;;;;;;;6401376;22;45247;-58
2023/01/19 15:48:07;;;;;;;;;20.00;16.67;;;;;;;;6400821;22;45833;-57
2023/01/19 15:50:43;;;;;;;;;17.67;13.33;;;;;;;;6400534;22;45344;-58
2023/01/19 15:53:15;;;;;;;;;18.00;15.00;;;;;;;;6400323;22;45383;-59
2023/01/19 15:55:41;;;;;;;;;21.00;13.33;;;;;;;;6400565;22;45235;-58
2023/01/19 15:58:06;;;;;;;;;14.75;14.75;;;;;;;;6400078;22;47176;-58
2023/01/19 16:00:32;;;;;;;;;17.25;15.75;;;;;;;;6401792;22;45210;-58
2023/01/19 16:02:57;;;;;;;;;14.50;14.25;;;;;;;;6401604;22;45384;-58
2023/01/19 16:05:23;;;;;;;;;18.00;18.00;;;;;;;;6402117;22;45536;-58
2023/01/19 16:07:48;;;;;;;;;21.25;17.75;;;;;;;;6401986;22;46534;-58
2023/01/19 16:10:15;;;;;;;;;24.00;17.00;;;;;;;;6399480;22;45272;-58
2023/01/19 16:12:40;;;;;;;;;21.25;20.75;;;;;;;;6401186;22;45297;-57
2023/01/19 16:15:06;;;;;;;;;20.00;19.00;;;;;;;;6400032;22;45278;-57
2023/01/19 16:17:31;;;;;;;;;22.00;18.25;;;;;;;;6399215;22;45317;-57
2023/01/19 16:19:56;;;;;;;;;21.50;20.00;;;;;;;;6399060;22;45261;-57
2023/01/19 16:22:21;;;;;;;;;18.25;16.25;;;;;;;;6402005;22;45238;-56
2023/01/19 16:24:47;;;;;;;;;31.00;22.25;;;;;;;;6397655;22;45349;-58
2023/01/19 16:27:12;;;;;;;;;23.50;18.00;;;;;;;;6400493;22;45435;-58
2023/01/19 16:29:37;;;;;;;;;23.50;19.50;;;;;;;;6401018;22;45381;-58
2023/01/19 16:32:02;;;;;;;;;24.25;23.75;;;;;;;;6400908;22;45505;-57
2023/01/19 16:34:28;;;;;;;;;26.50;24.00;;;;;;;;6402811;22;45697;-57
2023/01/19 16:36:53;;;;;;;;;30.75;22.50;;;;;;;;6400916;22;46948;-58
2023/01/19 16:39:18;;;;;;;;;24.50;20.75;;;;;;;;6403036;22;45238;-57
2023/01/19 16:41:44;;;;;;;;;26.50;20.25;;;;;;;;6403313;22;45510;-56
2023/01/19 16:44:13;;;;;;;;;22.25;19.50;;;;;;;;6402436;22;46097;-58
2023/01/19 16:46:39;;;;;;;;;23.00;18.50;;;;;;;;6402193;22;46117;-58
2023/01/19 16:49:06;;;;;;;;;21.00;17.00;;;;;;;;6401739;22;45305;-58
2023/01/19 16:51:32;;;;;;;;;21.00;17.67;;;;;;;;6402414;22;45542;-58
2023/01/19 16:53:57;;;;;;;;;21.75;19.50;;;;;;;;6402152;22;45316;-58
2023/01/19 16:56:23;;;;;;;;;26.00;24.75;;;;;;;;6402622;22;46110;-58
2023/01/19 16:58:51;;;;;;;;;27.75;21.75;;;;;;;;6402944;22;45302;-56
2023/01/19 17:01:17;;;;;;;;;22.00;18.00;;;;;;;;6403065;22;45392;-58
2023/01/19 17:03:42;;;;;;;;;19.00;16.67;;;;;;;;6403558;22;45583;-59
2023/01/19 17:06:09;;;;;;;;;24.25;21.75;;;;;;;;6402477;22;46145;-59
2023/01/19 17:08:34;;;;;;;;;17.33;17.33;;;;;;;;6402487;22;45433;-59
2023/01/19 17:11:01;;;;;;;;;26.00;20.00;;;;;;;;6401455;22;45488;-59
2023/01/19 17:13:27;;;;;;;;;21.33;21.00;;;;;;;;6403121;22;45426;-59
2023/01/19 17:15:57;;;;;;;;;20.00;17.33;;;;;;;;6401865;22;45400;-59
2023/01/19 17:18:22;;;;;;;;;17.25;15.50;;;;;;;;6403225;22;45415;-59
2023/01/19 17:20:47;;;;;;;;;18.33;15.00;;;;;;;;6402721;22;45354;-58
2023/01/19 17:23:13;;;;;;;;;13.25;13.25;;;;;;;;6403189;22;45326;-59
2023/01/19 17:25:38;;;;;;;;;19.50;16.50;;;;;;;;6402889;22;45153;-59
2023/01/19 17:28:03;;;;;;;;;23.25;21.00;;;;;;;;6402539;22;45527;-57
2023/01/19 17:30:28;;;;;;;;;24.75;17.25;;;;;;;;6405001;22;45151;-59
2023/01/19 17:32:54;;;;;;;;;72.50;53.75;;;;;;;;6405676;22;45150;-60
2023/01/19 17:35:19;;;;;;;;;17.25;15.00;;;;;;;;6376224;22;46855;-59
2023/01/19 17:37:44;;;;;;;;;15.50;15.50;;;;;;;;6374505;22;46110;-58
2023/01/19 17:40:09;;;;;;;;;20.33;10.00;;;;;;;;6402645;22;45422;-58
2023/01/19 17:42:40;;;;;;;;;22.00;16.67;;;;;;;;6403715;22;45490;-58
2023/01/19 17:45:06;;;;;;;;;16.00;12.67;;;;;;;;6402296;22;46146;-58
2023/01/19 17:47:31;;;;;;;;;14.00;14.00;;;;;;;;6403467;22;45245;-58
2023/01/19 17:49:57;;;;;;;;;14.67;11.67;;;;;;;;6400053;22;45521;-58
2023/01/19 17:52:22;;;;;;;;;16.00;10.00;;;;;;;;6402582;22;45587;-58
2023/01/19 17:54:47;;;;;;;;;14.00;13.00;;;;;;;;6375777;22;47249;-59
2023/01/19 17:57:12;;;;;;;;;16.33;16.00;;;;;;;;6374114;22;45541;-58
2023/01/19 17:59:39;;;;;;;;;40.00;38.25;;;;;;;;6403618;22;45388;-58
2023/01/19 18:02:05;;;;;;;;;39.00;33.25;;;;;;;;6402207;22;45791;-58
2023/01/19 18:04:30;;;;;;;;;21.75;21.50;;;;;;;;6402701;22;46022;-59
2023/01/19 18:06:56;;;;;;;;;23.00;19.75;;;;;;;;6402035;22;45368;-58
2023/01/19 18:09:21;;;;;;;;;24.00;21.25;;;;;;;;6402761;22;45262;-58
2023/01/19 18:11:46;;;;;;;;;21.50;20.00;;;;;;;;6403681;22;45548;-58
2023/01/19 18:14:11;;;;;;;;;29.25;19.00;;;;;;;;6402706;22;45208;-58
2023/01/19 18:16:36;;;;;;;;;29.50;28.50;;;;;;;;6402657;22;45511;-58
2023/01/19 18:19:02;;;;;;;;;27.75;22.75;;;;;;;;6400308;22;45640;-59
2023/01/19 18:21:27;;;;;;;;;22.25;18.50;;;;;;;;6401178;22;45631;-59
2023/01/19 18:23:57;;;;;;;;;19.33;17.67;;;;;;;;6402011;22;46191;-57
2023/01/19 18:26:22;;;;;;;;;27.50;23.50;;;;;;;;6402475;22;45340;-58
2023/01/19 18:28:48;;;;;;;;;23.50;20.25;;;;;;;;6403744;22;45681;-59
2023/01/19 18:31:15;;;;;;;;;23.50;19.75;;;;;;;;6402663;22;45732;-59
2023/01/19 18:33:41;;;;;;;;;27.75;23.25;;;;;;;;6403077;22;45634;-58
2023/01/19 18:36:06;;;;;;;;;29.25;27.75;;;;;;;;6402122;22;45282;-59
2023/01/19 18:38:32;;;;;;;;;24.00;20.25;;;;;;;;6399365;22;45541;-57
2023/01/19 18:41:00;;;;;;;;;63.75;51.00;;;;;;;;6403436;22;45342;-59
2023/01/19 18:43:26;;;;;;;;;42.50;39.00;;;;;;;;6403704;22;46057;-58
2023/01/19 18:45:51;;;;;;;;;27.75;25.50;;;;;;;;6403070;22;45287;-59
2023/01/19 18:48:16;;;;;;;;;32.75;29.00;;;;;;;;6404074;22;45290;-58
2023/01/19 18:50:41;;;;;;;;;37.50;31.25;;;;;;;;6404070;22;45313;-58
2023/01/19 18:53:06;;;;;;;;;37.25;29.00;;;;;;;;6401775;22;45468;-58
2023/01/19 18:55:32;;;;;;;;;29.25;27.00;;;;;;;;6373905;22;45298;-58
2023/01/19 18:57:57;;;;;;;;;33.75;31.75;;;;;;;;6402754;22;45288;-58
2023/01/19 19:00:22;;;;;;;;;41.00;34.25;;;;;;;;6403906;22;45434;-58
2023/01/19 19:02:48;;;;;;;;;29.00;28.25;;;;;;;;6374802;22;46041;-58
2023/01/19 19:05:13;;;;;;;;;35.75;26.00;;;;;;;;6403173;22;45372;-58
2023/01/19 19:07:38;;;;;;;;;26.25;24.00;;;;;;;;6403307;22;45265;-58
2023/01/19 19:10:04;;;;;;;;;35.00;32.25;;;;;;;;6403028;22;45630;-61
2023/01/19 19:12:29;;;;;;;;;38.25;32.25;;;;;;;;6401135;22;45841;-59
2023/01/19 19:14:54;;;;;;;;;28.75;24.25;;;;;;;;6401670;22;45296;-55
2023/01/19 19:17:19;;;;;;;;;29.25;21.75;;;;;;;;6402800;22;45392;-56
2023/01/19 19:19:45;;;;;;;;;32.00;28.25;;;;;;;;6403239;22;45372;-56
2023/01/19 19:22:10;;;;;;;;;39.75;35.00;;;;;;;;6403359;22;45860;-56
2023/01/19 19:24:35;;;;;;;;;47.75;38.00;;;;;;;;6403417;22;45151;-56
2023/01/19 19:27:00;;;;;;;;;82.75;63.00;;;;;;;;6403283;22;45580;-55
2023/01/19 19:29:27;;;;;;;;;54.00;43.50;;;;;;;;6404289;22;45509;-56
2023/01/19 19:31:52;;;;;;;;;51.50;41.75;;;;;;;;6373846;22;48099;-55
2023/01/19 19:34:17;;;;;;;;;43.25;38.00;;;;;;;;6403627;22;45371;-54
2023/01/19 19:36:42;;;;;;;;;59.00;45.75;;;;;;;;6403047;22;45189;-55
2023/01/19 19:39:08;;;;;;;;;50.25;40.00;;;;;;;;6403226;22;45257;-57
2023/01/19 19:41:33;;;;;;;;;43.75;38.00;;;;;;;;6374942;22;47127;-56
2023/01/19 19:43:58;;;;;;;;;39.50;34.00;;;;;;;;6402577;22;45232;-55
2023/01/19 19:46:24;;;;;;;;;44.75;39.50;;;;;;;;6404253;22;45320;-55
2023/01/19 19:48:50;;;;;;;;;61.25;47.25;;;;;;;;6403944;22;45256;-55
2023/01/19 19:51:25;;;;;;;;;89.00;76.00;;;;;;;;6403039;22;46242;-56